Time;durP1;ratioP1;P1;durP2;ratioP2;P2;SDS_P1;SDS_P2;PMS_P1;PMS_P2;Temp;Humidity;BMP_temperature;BMP_pressure;BME280_temperature;BME280_humidity;BME280_pressure;Samples;Min_cycle;Max_cycle;Signal;HPM_P1;HPM_P2
2023/10/07 00:01:52;;;;;;;10.02;3.70;;;;;;;13.69;100.00;101893.09;4914241;29;20485;-84
2023/10/07 00:04:18;;;;;;;15.05;3.42;;;;;;;13.68;100.00;101896.84;4901765;29;20098;-85
2023/10/07 00:06:45;;;;;;;11.57;4.32;;;;;;;13.72;100.00;101895.59;4918685;29;20407;-85
2023/10/07 00:09:15;;;;;;;15.00;3.88;;;;;;;13.70;100.00;101877.47;4935709;29;20406;-85
2023/10/07 00:11:46;;;;;;;8.18;3.67;;;;;;;13.71;100.00;101869.09;4932176;29;20039;-84
2023/10/07 00:14:14;;;;;;;18.63;4.00;;;;;;;13.70;100.00;101878.31;4918634;29;20035;-85
2023/10/07 00:16:43;;;;;;;19.40;5.50;;;;;;;13.72;100.00;101886.47;4914999;29;20028;-85
2023/10/07 00:19:08;;;;;;;14.60;4.88;;;;;;;13.74;100.00;101890.88;4922584;29;20044;-85
2023/10/07 00:21:53;;;;;;;14.38;3.85;;;;;;;13.73;100.00;101879.97;4924688;29;20095;-85
2023/10/07 00:24:19;;;;;;;15.05;4.35;;;;;;;13.74;100.00;101878.97;4933885;29;20044;-85
2023/10/07 00:26:47;;;;;;;15.43;5.25;;;;;;;13.69;100.00;101871.09;4918458;29;20027;-85
2023/10/07 00:29:13;;;;;;;12.82;5.15;;;;;;;13.69;100.00;101872.94;4915987;29;20035;-85
2023/10/07 00:31:40;;;;;;;11.52;3.75;;;;;;;13.67;100.00;101855.66;4937833;29;20099;-84
2023/10/07 00:34:14;;;;;;;9.63;3.88;;;;;;;13.65;100.00;101853.03;4918522;29;20023;-85
2023/10/07 00:39:09;;;;;;;14.07;5.07;;;;;;;13.64;100.00;101843.00;4916823;29;20390;-85
2023/10/07 00:41:54;;;;;;;14.95;4.43;;;;;;;13.63;100.00;101848.66;4934231;29;20043;-85
2023/10/07 00:46:55;;;;;;;16.95;4.93;;;;;;;13.66;100.00;101860.31;4934860;29;20070;-86
2023/10/07 00:49:22;;;;;;;16.77;5.25;;;;;;;13.63;100.00;101873.44;4931892;29;20449;-84
2023/10/07 00:51:49;;;;;;;12.45;4.63;;;;;;;13.62;100.00;101868.91;4911652;29;20040;-85
2023/10/07 00:54:18;;;;;;;21.55;4.78;;;;;;;13.63;100.00;101871.53;4915121;29;20031;-85
2023/10/07 00:56:54;;;;;;;16.92;5.00;;;;;;;13.63;100.00;101866.03;4933504;29;20043;-86
2023/10/07 00:59:19;;;;;;;18.38;6.03;;;;;;;13.68;100.00;101866.56;4916489;29;20040;-85
2023/10/07 01:01:50;;;;;;;17.92;6.13;;;;;;;13.63;100.00;101857.78;4932997;29;20047;-85
2023/10/07 01:04:16;;;;;;;12.35;5.07;;;;;;;13.56;100.00;101853.72;4913685;29;20039;-85
2023/10/07 01:06:45;;;;;;;25.23;6.57;;;;;;;13.59;100.00;101862.66;4914987;29;20043;-85
2023/10/07 01:09:14;;;;;;;17.48;5.72;;;;;;;13.65;100.00;101871.44;4933862;29;20019;-84
2023/10/07 01:11:40;;;;;;;16.52;5.82;;;;;;;13.72;100.00;101868.06;4917511;29;20130;-85
2023/10/07 01:14:06;;;;;;;16.60;6.10;;;;;;;13.71;100.00;101866.34;4915396;29;20171;-85
2023/10/07 01:16:45;;;;;;;19.13;5.93;;;;;;;13.69;100.00;101860.06;4908531;29;20475;-85
2023/10/07 01:19:36;;;;;;;21.35;6.05;;;;;;;13.65;100.00;101843.91;4931672;29;20035;-85
2023/10/07 01:22:09;;;;;;;13.20;6.25;;;;;;;13.62;100.00;101835.88;4931246;29;20024;-85
2023/10/07 01:29:59;;;;;;;14.57;6.40;;;;;;;13.59;100.00;101848.00;4897963;29;20390;-85
2023/10/07 01:32:31;;;;;;;20.85;6.50;;;;;;;13.57;100.00;101845.34;4933863;29;20587;-85
2023/10/07 01:34:58;;;;;;;;;;;;;;;13.57;100.00;101845.34;4918662;29;20498;-85
2023/10/07 01:37:25;;;;;;;18.00;6.82;;;;;;;13.60;100.00;101836.00;4929414;29;20404;-85
2023/10/07 01:39:53;;;;;;;21.25;6.82;;;;;;;13.59;100.00;101848.00;4933837;29;20034;-85
2023/10/07 01:42:26;;;;;;;22.60;7.55;;;;;;;13.63;100.00;101848.66;4930626;29;20039;-85
2023/10/07 01:44:57;;;;;;;17.73;7.05;;;;;;;13.68;100.00;101862.94;4933952;29;20031;-84
2023/10/07 01:47:29;;;;;;;21.00;8.05;;;;;;;13.64;100.00;101853.16;4933982;29;20036;-85
2023/10/07 01:49:56;;;;;;;24.67;7.93;;;;;;;13.62;100.00;101852.41;4930377;29;20127;-85
2023/10/07 01:52:26;;;;;;;25.35;7.60;;;;;;;13.63;100.00;101857.78;4930507;29;20856;-85
2023/10/07 01:54:52;;;;;;;23.90;8.50;;;;;;;13.61;100.00;101862.53;4901603;29;20027;-85
2023/10/07 01:57:19;;;;;;;26.25;9.02;;;;;;;13.66;100.00;101859.41;4933261;29;20522;-85
2023/10/07 01:59:45;;;;;;;28.42;7.97;;;;;;;13.67;100.00;101847.41;4931824;29;20046;-85
2023/10/07 02:02:14;;;;;;;22.58;7.63;;;;;;;13.64;100.00;101843.00;4918131;29;20036;-84
2023/10/07 02:04:39;;;;;;;25.33;8.65;;;;;;;13.62;100.00;101841.38;4912782;29;20114;-84
2023/10/07 02:07:05;;;;;;;21.10;8.65;;;;;;;13.67;100.00;101840.03;4934120;29;20118;-85
2023/10/07 02:09:54;;;;;;;26.60;8.82;;;;;;;13.66;100.00;101832.78;4915061;29;20110;-85
2023/10/07 02:12:18;;;;;;;26.17;10.32;;;;;;;13.74;100.00;101829.41;4916855;29;20035;-85
2023/10/07 02:14:44;;;;;;;25.77;10.55;;;;;;;13.84;100.00;101832.34;4915508;29;20110;-85
2023/10/07 02:17:13;;;;;;;30.92;10.40;;;;;;;13.93;100.00;101835.25;4933145;29;20183;-75
2023/10/07 02:19:41;;;;;;;20.60;10.50;;;;;;;13.96;100.00;101843.28;4913404;29;21523;-75
2023/10/07 02:22:07;;;;;;;22.92;10.68;;;;;;;14.01;100.00;101845.69;4917825;29;20043;-75
2023/10/07 02:24:35;;;;;;;29.58;10.95;;;;;;;14.01;100.00;101848.44;4928883;29;20138;-74
2023/10/07 02:27:06;;;;;;;25.05;10.77;;;;;;;14.05;100.00;101846.31;4912073;29;20445;-74
2023/10/07 02:29:32;;;;;;;31.77;11.23;;;;;;;14.05;100.00;101849.06;4931877;29;20091;-75
2023/10/07 02:32:17;;;;;;;28.50;11.88;;;;;;;14.06;100.00;101845.34;4915306;29;20039;-75
2023/10/07 02:34:51;;;;;;;30.15;12.00;;;;;;;14.06;100.00;101834.31;4927433;29;20482;-75
2023/10/07 02:37:38;;;;;;;34.88;12.32;;;;;;;14.06;100.00;101840.69;4915368;29;20039;-74
2023/10/07 02:40:22;;;;;;;26.88;14.23;;;;;;;14.12;100.00;101847.63;4918683;29;20490;-74
2023/10/07 02:42:50;;;;;;;34.20;14.52;;;;;;;14.17;100.00;101850.88;4927845;29;20317;-74
2023/10/07 02:45:21;;;;;;;39.28;15.40;;;;;;;14.19;100.00;101845.25;4913718;29;20818;-75
2023/10/07 02:47:54;;;;;;;35.00;15.40;;;;;;;14.22;100.00;101837.63;4931673;29;20044;-74
2023/10/07 02:50:21;;;;;;;38.38;14.20;;;;;;;14.23;100.00;101838.50;4931724;29;20039;-75
2023/10/07 02:52:47;;;;;;;39.65;15.82;;;;;;;14.18;100.00;101847.09;4914769;29;20035;-75
2023/10/07 02:57:43;;;;;;;35.20;15.65;;;;;;;14.23;100.00;101846.75;4929680;29;20402;-74
2023/10/07 03:00:29;;;;;;;35.28;15.60;;;;;;;14.25;100.00;101840.13;4931232;29;20051;-74
2023/10/07 03:05:45;;;;;;;39.08;14.90;;;;;;;14.26;100.00;101852.03;4926383;29;20115;-74
2023/10/07 03:08:19;;;;;;;33.55;14.30;;;;;;;14.26;100.00;101850.13;4924252;29;20188;-74
2023/10/07 03:10:54;;;;;;;39.17;16.40;;;;;;;14.35;100.00;101856.81;4931783;29;20062;-74
2023/10/07 03:13:22;;;;;;;35.97;16.15;;;;;;;14.32;100.00;101848.78;4928142;29;20120;-74
2023/10/07 03:16:09;;;;;;;43.75;14.77;;;;;;;14.31;100.00;101847.03;4913950;29;20028;-74
2023/10/07 03:18:34;;;;;;;33.30;15.95;;;;;;;14.33;100.00;101847.78;4917456;29;20108;-75
2023/10/07 03:21:00;;;;;;;41.65;15.88;;;;;;;14.35;100.00;101851.31;4901363;29;20126;-74
2023/10/07 03:23:26;;;;;;;43.22;16.42;;;;;;;14.34;100.00;101839.38;4936549;29;20028;-75
2023/10/07 03:28:23;;;;;;;47.63;17.27;;;;;;;14.37;100.00;101832.78;4933741;29;20042;-74
2023/10/07 03:30:52;;;;;;;38.20;17.75;;;;;;;14.42;100.00;101841.53;4915943;29;20098;-74
2023/10/07 03:33:23;;;;;;;36.38;17.55;;;;;;;14.37;100.00;101832.78;4919171;29;20039;-74
2023/10/07 03:38:25;;;;;;;40.65;17.50;;;;;;;14.44;100.00;101839.53;4934414;29;20114;-74
2023/10/07 03:40:56;;;;;;;41.90;17.30;;;;;;;14.42;100.00;101840.69;4928967;29;20028;-74
2023/10/07 03:43:25;;;;;;;47.70;17.42;;;;;;;14.45;100.00;101841.31;4935141;29;20027;-75
2023/10/07 03:45:54;;;;;;;44.08;17.02;;;;;;;14.47;100.00;101846.69;4934558;29;20102;-74
2023/10/07 03:48:31;;;;;;;46.53;17.10;;;;;;;14.45;100.00;101838.53;4934866;29;20032;-75
2023/10/07 03:51:08;;;;;;;52.40;18.10;;;;;;;14.43;100.00;101835.03;4933361;29;20040;-75
2023/10/07 03:53:45;;;;;;;45.53;17.40;;;;;;;14.46;100.00;101829.28;4933548;29;20087;-76
2023/10/07 03:56:12;;;;;;;50.20;16.98;;;;;;;14.48;100.00;101831.94;4932853;29;20502;-75
2023/10/07 03:58:42;;;;;;;33.20;17.00;;;;;;;14.47;100.00;101822.75;4932901;29;20095;-75
2023/10/07 04:01:17;;;;;;;47.42;17.88;;;;;;;14.48;100.00;101824.53;4934661;29;20043;-75
2023/10/07 04:03:47;;;;;;;44.58;18.58;;;;;;;14.50;100.00;101817.00;4904093;29;20035;-76
2023/10/07 04:06:32;;;;;;;41.70;17.83;;;;;;;14.50;100.00;101816.13;4931422;29;20442;-75
2023/10/07 04:09:05;;;;;;;39.17;17.67;;;;;;;14.50;100.00;101808.75;4935557;29;20024;-75
2023/10/07 04:11:33;;;;;;;42.92;18.73;;;;;;;14.55;100.00;101821.28;4918485;29;20520;-76
2023/10/07 04:14:08;;;;;;;39.25;17.02;;;;;;;14.53;100.00;101818.66;4936017;29;20020;-75
2023/10/07 04:16:36;;;;;;;42.13;19.17;;;;;;;14.56;100.00;101817.50;4935128;29;20046;-75
2023/10/07 04:21:39;;;;;;;45.47;20.10;;;;;;;14.60;100.00;101800.63;4933951;29;20058;-76
2023/10/07 04:24:09;;;;;;;33.13;17.75;;;;;;;14.58;100.00;101804.50;4933733;29;20106;-76
2023/10/07 04:26:39;;;;;;;40.40;19.40;;;;;;;14.59;100.00;101809.00;4933313;29;20063;-76
2023/10/07 04:29:08;;;;;;;45.40;19.25;;;;;;;14.57;100.00;101811.00;4934542;29;20580;-76
2023/10/07 04:31:37;;;;;;;43.25;19.30;;;;;;;14.56;100.00;101809.25;4929610;29;20039;-75
2023/10/07 04:34:11;;;;;;;39.22;19.50;;;;;;;14.58;100.00;101810.88;4926980;29;20072;-76
2023/10/07 04:36:59;;;;;;;37.40;19.00;;;;;;;14.56;100.00;101814.75;4935210;29;20142;-76
2023/10/07 04:39:28;;;;;;;45.13;20.40;;;;;;;14.57;100.00;101794.47;4917594;29;20047;-76
2023/10/07 04:42:03;;;;;;;48.15;20.17;;;;;;;14.59;100.00;101809.00;4930092;29;20038;-75
2023/10/07 04:50:16;;;;;;;42.65;19.25;;;;;;;14.64;100.00;101835.25;4934020;29;21684;-75
2023/10/07 04:52:51;;;;;;;43.83;19.52;;;;;;;14.66;100.00;101832.34;4931438;29;20043;-76
2023/10/07 04:55:25;;;;;;;40.10;18.90;;;;;;;14.63;100.00;101824.34;4913564;29;20438;-76
2023/10/07 05:03:14;;;;;;;40.03;19.23;;;;;;;14.63;100.00;101832.59;4932382;29;20079;-76
2023/10/07 05:05:43;;;;;;;36.53;18.95;;;;;;;14.63;100.00;101833.47;4931268;29;20035;-75
2023/10/07 05:08:27;;;;;;;43.17;19.95;;;;;;;14.64;100.00;101842.59;4927564;29;20039;-76
2023/10/07 05:10:54;;;;;;;43.60;20.05;;;;;;;14.61;100.00;101843.75;4928436;29;20086;-76
2023/10/07 05:13:20;;;;;;;33.47;18.77;;;;;;;14.68;100.00;101850.50;4933541;29;20038;-76
2023/10/07 05:15:46;;;;;;;37.90;18.65;;;;;;;14.69;100.00;101849.53;4933141;29;20079;-75
2023/10/07 05:18:15;;;;;;;35.28;17.05;;;;;;;14.65;100.00;101844.38;4930530;29;20134;-76
2023/10/07 05:20:42;;;;;;;41.42;16.35;;;;;;;14.63;100.00;101832.59;4915793;29;20032;-76
2023/10/07 05:23:13;;;;;;;32.75;15.77;;;;;;;14.66;100.00;101840.63;4932912;29;20150;-76
2023/10/07 05:25:48;;;;;;;34.10;16.17;;;;;;;14.68;100.00;101849.63;4917297;29;20070;-76
2023/10/07 05:28:17;;;;;;;39.17;16.13;;;;;;;14.68;100.00;101842.25;4911412;29;20028;-76
2023/10/07 05:30:50;;;;;;;29.35;15.00;;;;;;;14.73;100.00;101839.13;4929611;29;20343;-76
2023/10/07 05:33:22;;;;;;;41.72;15.70;;;;;;;14.74;100.00;101842.75;4932521;29;20122;-76
2023/10/07 05:35:49;;;;;;;41.13;14.95;;;;;;;14.74;100.00;101832.63;4915720;29;21276;-76
2023/10/07 05:38:19;;;;;;;27.98;14.00;;;;;;;14.71;100.00;101830.09;4930435;29;20031;-76
2023/10/07 05:40:47;;;;;;;28.83;13.55;;;;;;;14.69;100.00;101821.94;4931773;29;20027;-77
2023/10/07 05:43:13;;;;;;;28.73;12.48;;;;;;;14.77;100.00;101823.19;4932659;29;20167;-77
2023/10/07 05:45:40;;;;;;;37.63;12.65;;;;;;;14.73;100.00;101830.84;4916318;29;20122;-76
2023/10/07 05:48:10;;;;;;;25.70;12.07;;;;;;;14.72;100.00;101830.97;4928868;29;20035;-86
2023/10/07 05:50:36;;;;;;;32.65;12.73;;;;;;;14.71;100.00;101821.84;4928339;29;20040;-87
2023/10/07 05:53:07;;;;;;;37.85;12.10;;;;;;;14.71;100.00;101816.31;4913895;29;20090;-83
2023/10/07 05:55:36;;;;;;;38.33;12.43;;;;;;;14.72;100.00;101803.41;4934066;29;20036;-83
2023/10/07 05:58:05;;;;;;;35.40;12.60;;;;;;;14.72;100.00;101809.78;4933208;29;20344;-81
2023/10/07 06:00:36;;;;;;;42.78;11.18;;;;;;;14.69;100.00;101810.03;4932279;29;20043;-80
2023/10/07 06:03:06;;;;;;;32.58;10.98;;;;;;;14.70;100.00;101817.31;4930862;29;20093;-82
2023/10/07 06:05:38;;;;;;;32.42;9.90;;;;;;;14.67;100.00;101814.78;4929306;29;20478;-83
2023/10/07 06:08:08;;;;;;;24.47;10.30;;;;;;;14.63;100.00;101813.31;4927932;29;20036;-83
2023/10/07 06:10:33;;;;;;;27.98;11.38;;;;;;;14.60;100.00;101827.34;4926097;29;20043;-85
2023/10/07 06:13:08;;;;;;;27.17;10.55;;;;;;;14.62;100.00;101833.59;4915730;29;20050;-83
2023/10/07 06:15:39;;;;;;;25.80;10.23;;;;;;;14.61;100.00;101838.25;4929514;29;20047;-83
2023/10/07 06:18:05;;;;;;;26.02;10.05;;;;;;;14.58;100.00;101827.41;4928931;29;20036;-86
2023/10/07 06:20:46;;;;;;;25.25;9.45;;;;;;;14.65;100.00;101831.47;4929168;29;20482;-82
2023/10/07 06:23:15;;;;;;;27.13;9.90;;;;;;;14.57;100.00;101839.44;4945422;29;20062;-85
2023/10/07 06:25:51;;;;;;;25.55;10.38;;;;;;;14.63;100.00;101852.75;4945497;29;20130;-85
2023/10/07 06:31:13;;;;;;;27.33;10.13;;;;;;;14.68;100.00;101860.66;4941001;29;20383;-85
2023/10/07 06:33:42;;;;;;;29.73;9.48;;;;;;;14.63;100.00;101855.53;4945474;28;20040;-83
2023/10/07 06:36:10;;;;;;;28.45;9.48;;;;;;;14.61;100.00;101848.38;4924316;29;20097;-83
2023/10/07 06:38:52;;;;;;;26.00;10.18;;;;;;;14.62;100.00;101845.47;4925604;29;20027;-84
2023/10/07 06:41:18;;;;;;;24.08;8.68;;;;;;;14.63;100.00;101850.00;4928818;29;20049;-85
2023/10/07 06:43:59;;;;;;;20.98;8.73;;;;;;;14.65;100.00;101847.13;4930081;29;20439;-85
2023/10/07 06:46:41;;;;;;;32.33;9.63;;;;;;;14.64;100.00;101859.16;4929905;29;20036;-85
2023/10/07 06:49:20;;;;;;;31.20;9.87;;;;;;;14.66;100.00;101852.53;4915909;29;20541;-85
2023/10/07 06:51:53;;;;;;;27.63;9.10;;;;;;;14.73;100.00;101849.28;4928089;29;20039;-84
2023/10/07 06:54:34;;;;;;;26.88;9.50;;;;;;;14.77;100.00;101851.63;4926588;29;20134;-86
2023/10/07 06:57:04;;;;;;;28.70;9.73;;;;;;;14.74;100.00;101857.44;4929716;29;20044;-84
2023/10/07 06:59:47;;;;;;;30.27;9.93;;;;;;;14.70;100.00;101855.91;4925678;29;20111;-75
2023/10/07 07:02:18;;;;;;;22.42;9.43;;;;;;;14.74;100.00;101871.22;4913587;29;20039;-75
2023/10/07 07:04:44;;;;;;;29.13;9.57;;;;;;;14.70;100.00;101866.94;4897029;29;20063;-75
2023/10/07 07:07:16;;;;;;;30.70;9.05;;;;;;;14.71;100.00;101860.44;4929390;29;20439;-75
2023/10/07 07:12:16;;;;;;;31.73;8.38;;;;;;;14.76;100.00;101871.06;4931587;29;20042;-75
2023/10/07 07:14:53;;;;;;;25.67;8.90;;;;;;;14.78;100.00;101880.09;4930925;29;20042;-74
2023/10/07 07:22:35;;;;;;;29.90;9.07;;;;;;;14.92;100.00;101890.00;4927995;29;20035;-74
2023/10/07 07:25:50;;;;;;;23.88;8.60;;;;;;;14.91;100.00;101893.78;4930426;29;20115;-74
2023/10/07 07:27:48;;;;;;;25.77;8.18;;;;;;;14.97;100.00;101888.66;4923565;29;20027;-75
2023/10/07 07:30:29;;;;;;;30.83;9.38;;;;;;;14.99;100.00;101896.78;4931377;29;20039;-75
2023/10/07 07:32:59;;;;;;;28.02;8.75;;;;;;;14.88;100.00;101884.72;4927319;29;20036;-75
2023/10/07 07:35:38;;;;;;;35.63;8.65;;;;;;;14.92;100.00;101887.25;4929629;29;20414;-75
2023/10/07 07:38:31;;;;;;;20.23;7.90;;;;;;;14.97;100.00;101899.69;4901023;29;20016;-75
2023/10/07 07:41:01;;;;;;;24.50;9.33;;;;;;;15.09;100.00;101895.03;4914219;29;20078;-75
2023/10/07 07:43:26;;;;;;;27.20;8.50;;;;;;;15.10;100.00;101891.25;4931153;29;20032;-75
2023/10/07 07:46:03;;;;;;;23.30;9.30;;;;;;;15.18;100.00;101891.53;4936316;29;20501;-75
2023/10/07 07:48:36;;;;;;;28.52;8.65;;;;;;;15.25;100.00;101895.53;4933031;29;20342;-75
2023/10/07 07:51:01;;;;;;;24.73;8.50;;;;;;;15.28;100.00;101893.50;4898342;29;20031;-75
2023/10/07 07:53:30;;;;;;;24.73;8.45;;;;;;;15.30;100.00;101905.28;4901667;29;20042;-75
2023/10/07 07:55:58;;;;;;;37.55;8.02;;;;;;;15.26;100.00;101901.91;4933745;29;20036;-75
2023/10/07 07:58:24;;;;;;;24.90;8.15;;;;;;;15.24;100.00;101895.66;4932248;29;20521;-75
2023/10/07 08:00:58;;;;;;;22.38;8.57;;;;;;;15.44;100.00;101885.72;4913945;29;20036;-75
2023/10/07 08:03:24;;;;;;;25.13;7.90;;;;;;;16.01;100.00;101892.00;4900261;29;20039;-75
2023/10/07 08:05:50;;;;;;;23.35;7.82;;;;;;;16.06;100.00;101886.09;4932181;29;20027;-75
2023/10/07 08:08:24;;;;;;;27.33;8.20;;;;;;;16.21;100.00;101887.50;4935140;29;20035;-83
2023/10/07 08:10:54;;;;;;;25.42;7.60;;;;;;;16.29;100.00;101895.16;4912755;29;20103;-89
2023/10/07 08:13:23;;;;;;;30.00;7.80;;;;;;;16.26;100.00;101887.97;4921959;29;20051;-84
2023/10/07 08:15:51;;;;;;;26.33;7.60;;;;;;;16.27;100.00;101900.81;4932713;29;20024;-84
2023/10/07 08:18:22;;;;;;;20.63;8.70;;;;;;;16.06;100.00;101903.53;4933382;29;20064;-83
2023/10/07 08:20:48;;;;;;;20.95;7.32;;;;;;;15.93;100.00;101902.81;4917106;29;20044;-83
2023/10/07 08:23:28;;;;;;;26.40;8.02;;;;;;;15.99;100.00;101903.19;4933057;29;20398;-84
2023/10/07 08:26:09;;;;;;;26.25;7.00;;;;;;;16.47;100.00;101909.25;4918070;29;20098;-84
2023/10/07 08:28:46;;;;;;;21.13;7.65;;;;;;;16.69;100.00;101898.06;4933334;29;20554;-85
2023/10/07 08:31:21;;;;;;;26.80;7.40;;;;;;;17.36;100.00;101893.00;4934722;29;20035;-86
2023/10/07 08:33:53;;;;;;;20.67;7.43;;;;;;;17.24;100.00;101906.06;4918156;29;20122;-84
2023/10/07 08:36:27;;;;;;;16.45;6.97;;;;;;;17.49;100.00;101901.06;4912451;29;20067;-85
2023/10/07 08:38:54;;;;;;;19.52;6.57;;;;;;;17.57;100.00;101908.69;4933263;29;20028;-85
2023/10/07 08:41:26;;;;;;;21.38;6.93;;;;;;;17.64;100.00;101910.75;4918229;29;20878;-86
2023/10/07 08:44:15;;;;;;;21.38;6.97;;;;;;;17.98;100.00;101906.75;4932588;29;20035;-86
2023/10/07 08:46:59;;;;;;;24.70;6.43;;;;;;;17.71;100.00;101899.97;4929352;29;20039;-86
2023/10/07 08:49:26;;;;;;;25.40;6.80;;;;;;;18.23;100.00;101898.88;4916539;29;20028;-85
2023/10/07 08:51:54;;;;;;;23.58;6.22;;;;;;;17.99;100.00;101897.41;4916979;29;20436;-85
2023/10/07 08:54:44;;;;;;;20.20;6.05;;;;;;;18.39;100.00;101895.53;4935975;29;20031;-85
2023/10/07 08:57:19;;;;;;;26.95;6.90;;;;;;;18.66;100.00;101900.28;4934281;29;20036;-85
2023/10/07 08:59:59;;;;;;;24.08;7.45;;;;;;;18.31;100.00;101891.56;4931380;29;20463;-85
2023/10/07 09:02:30;;;;;;;13.43;5.50;;;;;;;18.74;100.00;101889.31;4933019;29;20045;-84
2023/10/07 09:04:57;;;;;;;18.15;6.32;;;;;;;18.90;100.00;101878.50;4932116;29;20120;-84
2023/10/07 09:07:23;;;;;;;17.45;6.55;;;;;;;18.50;100.00;101874.03;4933976;29;20031;-85
2023/10/07 09:09:49;;;;;;;21.50;6.32;;;;;;;18.41;100.00;101880.47;4915715;29;20039;-85
2023/10/07 09:12:14;;;;;;;20.20;6.30;;;;;;;18.58;100.00;101876.09;4934131;29;20039;-84
2023/10/07 09:14:51;;;;;;;16.88;5.28;;;;;;;18.94;100.00;101875.41;4931633;29;20379;-84
2023/10/07 09:17:26;;;;;;;24.48;6.20;;;;;;;18.95;100.00;101880.81;4933002;29;20040;-76
2023/10/07 09:19:58;;;;;;;25.88;6.28;;;;;;;19.38;100.00;101881.22;4932941;29;20024;-76
2023/10/07 09:22:24;;;;;;;18.30;5.82;;;;;;;19.08;100.00;101878.56;4934552;29;20028;-77
2023/10/07 09:24:54;;;;;;;20.10;6.32;;;;;;;19.26;100.00;101873.09;4931777;29;20031;-76
2023/10/07 09:27:36;;;;;;;18.55;6.10;;;;;;;19.06;100.00;101877.00;4932258;29;20047;-78
2023/10/07 09:32:55;;;;;;;27.88;5.63;;;;;;;19.69;100.00;101864.22;4933576;29;20134;-77
2023/10/07 09:35:23;;;;;;;29.98;6.05;;;;;;;19.42;100.00;101858.53;4915287;29;20496;-77
2023/10/07 09:37:57;;;;;;;21.27;5.38;;;;;;;19.69;100.00;101875.34;4947898;29;20507;-78
2023/10/07 09:43:29;;;;;;;21.75;4.95;;;;;;;20.04;100.00;101874.53;4931391;29;20110;-78
2023/10/07 09:45:58;;;;;;;21.30;4.50;;;;;;;19.89;100.00;101860.31;4928097;29;20031;-77
2023/10/07 09:48:31;;;;;;;17.13;5.00;;;;;;;20.52;100.00;101861.22;4931512;29;20404;-78
2023/10/07 09:51:02;;;;;;;24.58;5.05;;;;;;;20.06;100.00;101863.25;4932937;29;20035;-77
2023/10/07 09:53:47;;;;;;;18.83;4.53;;;;;;;;;;4931516;29;20035;-76
2023/10/07 09:56:39;;;;;;;16.75;4.88;;;;;;;20.54;100.00;101854.44;4933571;29;20043;-77
2023/10/07 09:59:48;;;;;;;15.68;4.82;;;;;;;20.45;100.00;101849.00;4933095;29;20084;-77
2023/10/07 10:02:25;;;;;;;19.33;3.97;;;;;;;20.19;100.00;101847.03;4920173;29;20040;-77
2023/10/07 10:04:54;;;;;;;17.52;4.80;;;;;;;20.08;100.00;101855.63;4932666;29;20033;-78
2023/10/07 10:07:58;;;;;;;16.65;4.00;;;;;;;20.12;100.00;101855.16;4932803;29;20398;-78
2023/10/07 10:10:34;;;;;;;19.40;4.35;;;;;;;20.49;100.00;101850.41;4932868;29;20020;-78
2023/10/07 10:20:50;;;;;;;19.58;3.95;;;;;;;20.48;100.00;101868.13;4932684;29;20051;-79
2023/10/07 10:23:19;;;;;;;20.75;4.15;;;;;;;20.83;100.00;101872.78;4931998;29;20067;-78
2023/10/07 10:26:14;;;;;;;21.20;4.03;;;;;;;21.16;100.00;101872.97;4929037;29;20065;-78
2023/10/07 10:28:45;;;;;;;20.25;4.07;;;;;;;21.18;100.00;101875.56;4933415;29;20031;-87
2023/10/07 10:31:40;;;;;;;11.45;3.97;;;;;;;21.27;100.00;101886.59;4931533;29;20089;-87
2023/10/07 10:34:08;;;;;;;17.02;4.30;;;;;;;20.92;100.00;101888.50;4930493;29;20047;-87
2023/10/07 10:36:48;;;;;;;20.88;3.78;;;;;;;21.43;100.00;101876.53;4933121;29;20051;-86
2023/10/07 10:39:25;;;;;;;10.23;3.50;;;;;;;21.29;100.00;101880.84;4932091;29;20039;-87
2023/10/07 10:41:54;;;;;;;15.23;3.92;;;;;;;21.06;100.00;101870.28;4910019;29;20126;-87
2023/10/07 10:44:21;;;;;;;20.38;4.45;;;;;;;21.38;100.00;101865.03;4900911;29;20410;-87
2023/10/07 10:46:51;;;;;;;16.83;3.72;;;;;;;21.34;100.00;101872.00;4931858;29;20031;-87
2023/10/07 10:49:20;;;;;;;11.65;3.20;;;;;;;21.50;100.00;101874.88;4933423;29;20020;-88
2023/10/07 10:51:48;;;;;;;11.77;3.53;;;;;;;21.55;100.00;101875.25;4915248;29;20058;-87
2023/10/07 10:54:16;;;;;;;11.35;3.25;;;;;;;21.28;100.00;101874.44;4935882;29;20019;-88
2023/10/07 10:56:51;;;;;;;10.68;3.35;;;;;;;21.08;100.00;101862.63;4932781;29;20055;-88
2023/10/07 10:59:22;;;;;;;15.48;3.63;;;;;;;21.40;100.00;101875.00;4932812;29;20043;-87
2023/10/07 11:01:50;;;;;;;15.27;3.88;;;;;;;21.36;100.00;101878.28;4933413;29;20028;-87
2023/10/07 11:04:21;;;;;;;12.57;3.63;;;;;;;21.37;100.00;101880.03;4916063;29;20079;-88
2023/10/07 11:06:51;;;;;;;10.60;3.05;;;;;;;21.76;100.00;101874.78;4932287;29;20036;-86
2023/10/07 11:09:26;;;;;;;8.93;3.08;;;;;;;21.89;100.00;101879.88;4905208;29;20034;-88
2023/10/07 11:11:55;;;;;;;10.55;2.90;;;;;;;21.99;100.00;101872.22;4917118;29;20036;-87
2023/10/07 11:14:22;;;;;;;12.18;3.53;;;;;;;21.42;100.00;101869.25;4936710;29;20067;-88
2023/10/07 11:16:49;;;;;;;13.85;3.40;;;;;;;21.48;100.00;101869.47;4938753;29;20051;-87
2023/10/07 11:19:15;;;;;;;16.70;3.35;;;;;;;21.25;100.00;101860.81;4934964;29;20427;-89
2023/10/07 11:21:44;;;;;;;9.98;3.38;;;;;;;21.43;100.00;101855.16;4916294;29;20071;-89
2023/10/07 11:24:14;;;;;;;13.05;3.55;;;;;;;21.67;100.00;101851.56;4933347;29;20024;-87
2023/10/07 11:26:42;;;;;;;10.00;3.40;;;;;;;21.56;100.00;101857.50;4932113;29;20529;-87
2023/10/07 11:29:13;;;;;;;10.98;3.30;;;;;;;21.67;100.00;101850.72;4915646;29;20036;-87
2023/10/07 11:31:41;;;;;;;12.60;3.38;;;;;;;21.72;100.00;101856.66;4929206;29;20086;-86
2023/10/07 11:34:07;;;;;;;11.55;3.30;;;;;;;21.75;100.00;101850.72;4900444;29;20118;-87
2023/10/07 11:36:49;;;;;;;17.23;3.45;;;;;;;21.90;100.00;101848.16;4927741;29;20048;-86
2023/10/07 11:39:16;;;;;;;9.93;3.05;;;;;;;21.94;100.00;101849.56;4932995;29;20040;-87
2023/10/07 11:41:42;;;;;;;14.05;3.22;;;;;;;22.02;100.00;101848.69;4916047;29;20027;-87
2023/10/07 11:44:11;;;;;;;15.25;3.38;;;;;;;22.10;100.00;101845.03;4935026;29;20158;-86
2023/10/07 11:46:41;;;;;;;9.80;3.38;;;;;;;21.77;100.00;101839.41;4934747;29;20123;-87
2023/10/07 11:49:07;;;;;;;11.32;3.35;;;;;;;21.61;100.00;101848.59;4930498;29;20034;-86
2023/10/07 11:51:33;;;;;;;6.00;2.85;;;;;;;21.39;100.00;101837.00;4918599;29;20028;-87
2023/10/07 11:54:00;;;;;;;12.35;3.38;;;;;;;21.70;100.00;101850.38;4936071;29;20027;-86
2023/10/07 11:56:27;;;;;;;14.60;4.00;;;;;;;21.75;100.00;101850.72;4933269;29;20031;-86
2023/10/07 11:58:52;;;;;;;12.88;3.65;;;;;;;21.68;100.00;101849.69;4935449;29;20028;-86
2023/10/07 12:01:20;;;;;;;9.80;3.38;;;;;;;21.56;100.00;101842.66;4936064;29;20035;-87
2023/10/07 12:03:46;;;;;;;9.85;3.63;;;;;;;21.70;100.00;101853.16;4931614;29;20343;-86
2023/10/07 12:06:17;;;;;;;10.18;4.03;;;;;;;21.66;100.00;101851.75;4935463;29;20145;-86
2023/10/07 12:08:43;;;;;;;14.43;3.63;;;;;;;21.76;100.00;101858.06;4936134;29;20113;-86
2023/10/07 12:11:08;;;;;;;13.07;4.03;;;;;;;21.91;100.00;101857.41;4915054;29;20035;-86
2023/10/07 12:13:35;;;;;;;9.32;3.63;;;;;;;21.86;100.00;101855.13;4935589;29;20035;-87
2023/10/07 12:16:00;;;;;;;9.02;3.38;;;;;;;21.89;100.00;101856.69;4934741;29;20046;-87
2023/10/07 12:18:26;;;;;;;12.07;3.88;;;;;;;22.00;100.00;101861.94;4936097;29;20031;-86
2023/10/07 12:20:55;;;;;;;9.85;3.15;;;;;;;22.15;100.00;101850.97;4950298;29;20027;-87
2023/10/07 12:23:20;;;;;;;13.13;4.05;;;;;;;22.17;100.00;101844.16;4935339;29;20082;-87
2023/10/07 12:25:47;;;;;;;13.80;3.70;;;;;;;22.17;100.00;101846.97;4934574;29;21010;-88